createdAt,value
2018-11-25T00:39:48.706Z,47.73
2018-11-25T00:42:24.417Z,40.27
2018-11-25T00:44:59.279Z,44.87
2018-11-25T00:47:32.384Z,44.67
2018-11-25T00:50:06.988Z,46.03
2018-11-25T00:52:39.974Z,40.17
2018-11-25T00:55:15.631Z,44.50
2018-11-25T00:57:56.894Z,43.63
2018-11-25T01:00:40.498Z,44.57
2018-11-25T01:03:11.990Z,41.63
2018-11-25T01:05:50.266Z,43.17
2018-11-25T01:08:22.204Z,40.93
2018-11-25T01:10:54.350Z,40.30
2018-11-25T01:13:33.267Z,49.10
2018-11-25T01:16:07.807Z,54.27
2018-11-25T01:18:40.734Z,47.30
2018-11-25T01:21:16.507Z,47.30
2018-11-25T01:23:51.208Z,41.23
2018-11-25T01:26:25.560Z,42.30
2018-11-25T01:28:57.366Z,48.13
2018-11-25T01:31:29.661Z,54.20
2018-11-25T01:34:06.121Z,45.33
2018-11-25T01:36:39.474Z,44.37
2018-11-25T01:39:16.759Z,51.00
2018-11-25T01:41:48.797Z,54.60
2018-11-25T01:44:20.419Z,48.90
2018-11-25T01:46:55.664Z,46.83
2018-11-25T01:49:33.451Z,54.63
2018-11-25T01:52:08.185Z,56.60
2018-11-25T01:54:40.899Z,47.10
2018-11-25T01:57:19.062Z,60.37
2018-11-25T01:59:52.121Z,55.50
2018-11-25T02:02:26.522Z,51.60
2018-11-25T02:05:01.764Z,52.30
2018-11-25T02:07:37.003Z,63.23
2018-11-25T02:10:17.072Z,60.27
2018-11-25T02:12:51.180Z,52.90
2018-11-25T02:15:23.631Z,65.73
2018-11-25T02:17:55.041Z,52.87
2018-11-25T02:20:25.850Z,67.40
2018-11-25T02:22:59.068Z,50.17
2018-11-25T02:25:30.800Z,50.10
2018-11-25T02:28:04.190Z,64.10
2018-11-25T02:30:37.984Z,62.70
2018-11-25T02:33:08.449Z,56.07
2018-11-25T02:35:40.045Z,59.80
2018-11-25T02:38:12.415Z,57.33
2018-11-25T02:40:45.318Z,54.13
2018-11-25T02:43:17.114Z,51.63
2018-11-25T02:45:48.062Z,60.07
2018-11-25T02:48:19.341Z,56.80
2018-11-25T02:50:51.600Z,68.07
2018-11-25T02:53:22.856Z,60.07
2018-11-25T02:55:56.684Z,56.07
2018-11-25T02:58:28.328Z,49.03
2018-11-25T03:01:01.822Z,53.13
2018-11-25T03:03:34.826Z,57.37
2018-11-25T03:06:09.495Z,67.10
2018-11-25T03:08:40.739Z,60.63
2018-11-25T03:11:14.347Z,50.00
2018-11-25T03:13:46.729Z,54.90
2018-11-25T03:16:18.284Z,54.23
2018-11-25T03:18:51.928Z,43.03
2018-11-25T03:21:27.988Z,48.00
2018-11-25T03:24:01.727Z,50.77
2018-11-25T03:26:32.897Z,54.97
2018-11-25T03:29:06.289Z,51.97
2018-11-25T03:31:38.457Z,63.80
2018-11-25T03:34:11.114Z,58.90
2018-11-25T03:36:41.587Z,58.37
2018-11-25T03:39:20.278Z,47.17
2018-11-25T03:41:53.515Z,38.80
2018-11-25T03:44:29.857Z,48.98
2018-11-25T03:47:00.603Z,51.47
2018-11-25T03:49:33.384Z,53.07
2018-11-25T03:52:05.763Z,52.77
2018-11-25T03:54:38.937Z,46.87
2018-11-25T03:57:15.593Z,49.43
2018-11-25T03:59:52.907Z,46.93
2018-11-25T04:02:25.143Z,44.50
2018-11-25T04:05:00.418Z,47.00
2018-11-25T04:07:37.718Z,50.50
2018-11-25T04:10:16.231Z,51.77
2018-11-25T04:12:54.368Z,53.47
2018-11-25T04:15:24.695Z,48.33
2018-11-25T04:17:59.070Z,52.07
2018-11-25T04:20:35.317Z,52.27
2018-11-25T04:23:12.207Z,45.70
2018-11-25T04:25:50.617Z,51.10
2018-11-25T04:28:29.100Z,44.77
2018-11-25T04:31:04.060Z,54.40
2018-11-25T04:33:35.033Z,58.50
2018-11-25T04:36:10.461Z,49.90
2018-11-25T04:38:44.306Z,50.20
2018-11-25T04:41:15.881Z,48.80
2018-11-25T04:43:48.551Z,51.53
2018-11-25T04:46:20.570Z,47.07
2018-11-25T04:48:52.178Z,55.70
2018-11-25T04:51:25.106Z,50.97
2018-11-25T04:53:59.772Z,55.97
2018-11-25T04:56:31.238Z,59.83
2018-11-25T04:59:10.015Z,49.67
2018-11-25T05:01:45.148Z,52.83
2018-11-25T05:04:19.387Z,48.60
2018-11-25T05:06:52.019Z,46.20
2018-11-25T05:09:25.252Z,54.60
2018-11-25T05:12:01.219Z,59.90
2018-11-25T05:14:33.324Z,52.83
2018-11-25T05:17:07.497Z,52.57
2018-11-25T05:19:40.299Z,53.73
2018-11-25T05:22:12.152Z,57.10
2018-11-25T05:24:46.527Z,53.10
2018-11-25T05:27:22.463Z,55.52
2018-11-25T05:30:05.296Z,45.90
2018-11-25T05:32:51.820Z,57.43
2018-11-25T05:35:30.871Z,50.67
2018-11-25T05:38:03.016Z,49.00
2018-11-25T05:40:44.836Z,59.13
2018-11-25T05:43:19.356Z,49.77
2018-11-25T05:45:57.599Z,48.47
2018-11-25T05:48:36.807Z,52.27
2018-11-25T05:51:09.825Z,51.37
2018-11-25T05:53:45.491Z,47.80
2018-11-25T05:56:20.478Z,42.00
2018-11-25T05:58:51.464Z,44.93
2018-11-25T06:01:25.662Z,44.27
2018-11-25T06:04:01.129Z,46.42
2018-11-25T06:06:33.486Z,31.70
2018-11-25T06:09:09.719Z,37.67
2018-11-25T06:11:53.146Z,34.00
2018-11-25T06:14:33.459Z,35.37
2018-11-25T06:17:09.893Z,40.67
2018-11-25T06:19:51.822Z,48.25
2018-11-25T06:22:24.257Z,38.47
2018-11-25T06:24:59.976Z,43.10
2018-11-25T06:27:43.002Z,41.33
2018-11-25T06:30:24.115Z,39.20
2018-11-25T06:33:00.151Z,41.87
2018-11-25T06:35:36.892Z,42.27
2018-11-25T06:38:13.834Z,42.83
2018-11-25T06:40:58.627Z,40.67
2018-11-25T06:43:42.059Z,33.10
2018-11-25T06:46:19.638Z,34.07
2018-11-25T06:49:00.273Z,40.87
2018-11-25T06:51:58.491Z,41.97
2018-11-25T06:54:32.973Z,38.63
2018-11-25T06:57:09.995Z,43.80
2018-11-25T06:59:47.982Z,42.40
2018-11-25T07:02:26.348Z,44.03
2018-11-25T07:05:08.622Z,45.55
2018-11-25T07:07:49.324Z,44.63
2018-11-25T07:10:28.192Z,39.03
2018-11-25T07:13:09.050Z,40.70
2018-11-25T07:15:43.739Z,47.27
2018-11-25T07:18:25.506Z,36.93
2018-11-25T07:20:58.172Z,38.67
2018-11-25T07:23:32.097Z,42.20
2018-11-25T07:26:03.842Z,44.80
2018-11-25T07:28:39.501Z,45.57
2018-11-25T07:31:15.693Z,39.10
2018-11-25T07:33:50.480Z,44.97
2018-11-25T07:36:27.363Z,47.00
2018-11-25T07:39:11.890Z,48.67
2018-11-25T07:41:55.230Z,48.37
2018-11-25T07:50:34.082Z,41.33
2018-11-25T07:53:16.529Z,48.80
2018-11-25T07:56:00.614Z,48.77
2018-11-25T07:58:47.098Z,42.97
2018-11-25T08:01:31.713Z,41.17
2018-11-25T08:04:09.088Z,48.53
2018-11-25T08:06:43.255Z,40.50
2018-11-25T08:09:32.172Z,44.73
2018-11-25T08:12:06.268Z,41.40
2018-11-25T08:14:54.767Z,47.97
2018-11-25T08:17:34.305Z,48.43
2018-11-25T08:20:15.357Z,45.60
2018-11-25T08:23:05.628Z,47.03
2018-11-25T08:25:48.711Z,43.57
2018-11-25T08:28:36.461Z,53.35
2018-11-25T08:31:14.250Z,46.87
2018-11-25T08:33:51.556Z,41.70
2018-11-25T08:36:22.879Z,43.57
2018-11-25T08:38:58.042Z,54.50
2018-11-25T08:41:36.465Z,61.42
2018-11-25T08:44:33.497Z,57.23
2018-11-25T08:47:25.028Z,68.47
2018-11-25T08:50:16.478Z,57.27
2018-11-25T08:53:03.280Z,66.60
2018-11-25T08:55:45.814Z,70.17
2018-11-25T08:58:25.097Z,70.70
2018-11-25T09:01:03.488Z,69.50
2018-11-25T09:04:01.319Z,69.17
2018-11-25T09:06:42.831Z,69.00
2018-11-25T09:09:25.697Z,61.77
2018-11-25T09:12:16.151Z,67.13
2018-11-25T09:15:01.370Z,72.43
2018-11-25T09:17:37.980Z,65.53
2018-11-25T09:20:29.608Z,65.70
2018-11-25T09:23:05.428Z,62.07
2018-11-25T09:25:53.560Z,63.63
2018-11-25T09:28:35.310Z,67.90
2018-11-25T09:31:16.510Z,61.33
2018-11-25T09:33:56.770Z,63.43
2018-11-25T09:36:33.151Z,57.63
2018-11-25T09:39:15.155Z,71.47
2018-11-25T09:41:55.457Z,61.10
2018-11-25T09:44:31.676Z,64.27
2018-11-25T09:47:11.899Z,67.83
2018-11-25T09:49:45.220Z,72.27
2018-11-25T09:52:24.288Z,61.57
2018-11-25T09:55:02.024Z,66.23
2018-11-25T09:57:36.893Z,84.03
2018-11-25T10:00:23.520Z,74.20
2018-11-25T10:02:58.310Z,59.73
2018-11-25T10:05:36.788Z,68.27
2018-11-25T10:08:10.984Z,70.07
2018-11-25T10:10:52.468Z,60.63
2018-11-25T10:13:26.348Z,65.33
2018-11-25T10:16:04.464Z,67.73
2018-11-25T10:18:48.068Z,71.57
2018-11-25T10:21:33.989Z,71.92
2018-11-25T10:24:16.916Z,72.07
2018-11-25T10:26:57.356Z,62.40
2018-11-25T10:29:35.531Z,87.43
2018-11-25T10:32:25.647Z,73.70
2018-11-25T10:35:02.148Z,75.67
2018-11-25T10:37:44.810Z,72.90
2018-11-25T10:40:20.606Z,83.07
2018-11-25T10:42:59.115Z,74.87
2018-11-25T10:45:38.758Z,73.57
2018-11-25T10:48:12.748Z,78.80
2018-11-25T10:51:01.458Z,77.10
2018-11-25T10:53:40.554Z,70.00
2018-11-25T10:56:25.626Z,83.37
2018-11-25T10:59:09.218Z,74.73
2018-11-25T11:02:10.687Z,81.30
2018-11-25T11:05:00.866Z,77.90
2018-11-25T11:07:43.331Z,69.00
2018-11-25T11:10:43.298Z,82.30
2018-11-25T11:13:35.541Z,73.57
2018-11-25T11:16:15.500Z,77.03
2018-11-25T11:19:20.268Z,69.37
2018-11-25T11:22:02.671Z,69.80
2018-11-25T11:24:49.089Z,75.80
2018-11-25T11:27:32.341Z,63.57
2018-11-25T11:33:23.018Z,65.97
2018-11-25T11:44:26.538Z,68.07
2018-11-25T11:47:28.216Z,64.43
2018-11-25T11:50:23.459Z,78.22
2018-11-25T11:53:41.298Z,69.80
2018-11-25T11:56:17.597Z,66.03
2018-11-25T12:01:54.750Z,64.67
2018-11-25T12:04:37.934Z,70.83
2018-11-25T12:10:35.929Z,82.37
2018-11-25T12:13:24.648Z,69.97
2018-11-25T12:16:21.144Z,60.33
2018-11-25T12:19:16.134Z,65.53
2018-11-25T12:22:24.525Z,57.77
2018-11-25T12:25:10.091Z,62.43
2018-11-25T12:27:50.833Z,59.90
2018-11-25T12:33:21.718Z,55.47
2018-11-25T12:36:11.299Z,59.90
2018-11-25T12:38:53.170Z,58.13
2018-11-25T12:41:34.700Z,60.53
2018-11-25T12:44:13.725Z,57.07
2018-11-25T12:46:56.219Z,59.77
2018-11-25T12:49:42.909Z,53.13
2018-11-25T12:52:14.802Z,55.80
2018-11-25T12:54:55.890Z,61.70
2018-11-25T12:57:43.617Z,63.17
2018-11-25T13:00:27.351Z,50.53
2018-11-25T13:03:05.251Z,68.00
2018-11-25T13:05:52.712Z,64.57
2018-11-25T13:08:38.759Z,54.53
2018-11-25T13:11:23.739Z,50.93
2018-11-25T13:14:04.710Z,54.50
2018-11-25T13:16:50.094Z,51.47
2018-11-25T13:19:32.008Z,70.73
2018-11-25T13:22:11.548Z,53.53
2018-11-25T13:24:59.532Z,57.10
2018-11-25T13:27:51.456Z,62.57
2018-11-25T13:30:37.010Z,66.28
2018-11-25T13:38:47.922Z,59.30
2018-11-25T13:41:31.756Z,63.07
2018-11-25T13:44:14.368Z,55.63
2018-11-25T13:47:01.325Z,64.90
2018-11-25T13:50:17.228Z,67.70
2018-11-25T13:53:12.632Z,63.40
2018-11-25T13:58:54.459Z,76.73
2018-11-25T14:04:36.778Z,96.47
2018-11-25T14:07:24.166Z,77.63
2018-11-25T14:10:09.117Z,87.07
2018-11-25T14:13:07.492Z,94.83
2018-11-25T14:15:54.473Z,76.57
2018-11-25T14:19:00.578Z,96.07
2018-11-25T14:26:48.880Z,75.93
2018-11-25T14:29:26.018Z,88.10
2018-11-25T14:32:15.729Z,79.77
2018-11-25T14:38:09.511Z,98.63
2018-11-25T14:41:01.917Z,93.20
2018-11-25T14:43:44.338Z,101.60
2018-11-25T14:46:26.879Z,96.30
2018-11-25T14:49:15.885Z,90.27
2018-11-25T14:55:20.800Z,82.77
2018-11-25T14:58:17.467Z,94.57
2018-11-25T15:01:32.772Z,96.77
2018-11-25T15:04:26.968Z,101.20
2018-11-25T15:07:24.870Z,98.30
2018-11-25T15:10:11.591Z,93.73
2018-11-25T15:13:15.658Z,108.90
2018-11-25T15:24:02.211Z,103.13
2018-11-25T15:27:04.302Z,96.13
2018-11-25T15:32:51.802Z,106.57
2018-11-25T15:35:37.197Z,112.87
2018-11-25T15:38:27.898Z,92.90
2018-11-25T15:41:14.846Z,96.43
2018-11-25T15:47:50.433Z,98.25
2018-11-25T15:50:44.060Z,89.30
2018-11-25T15:53:34.550Z,97.00
2018-11-25T15:56:17.807Z,83.37
2018-11-25T15:58:59.168Z,78.23
2018-11-25T16:01:53.618Z,85.33
2018-11-25T16:07:21.921Z,92.97
2018-11-25T16:10:41.669Z,79.87
2018-11-25T16:17:06.060Z,75.90
2018-11-25T16:20:17.861Z,75.93
2018-11-25T16:23:15.848Z,71.13
2018-11-25T16:26:10.162Z,78.17
2018-11-25T16:29:22.032Z,75.63
2018-11-25T16:32:03.515Z,68.13
2018-11-25T16:39:40.877Z,65.40
2018-11-25T16:45:17.643Z,63.73
2018-11-25T16:47:59.748Z,54.63
2018-11-25T16:50:42.021Z,58.67
2018-11-25T16:53:32.517Z,62.80
2018-11-25T16:56:32.512Z,61.17
2018-11-25T16:59:18.943Z,61.87
2018-11-25T17:05:37.084Z,51.70
2018-11-25T17:08:30.858Z,49.40
2018-11-25T17:11:14.088Z,62.67
2018-11-25T17:14:33.589Z,48.00
2018-11-25T17:20:34.248Z,77.63
2018-11-25T17:27:28.128Z,50.10
2018-11-25T17:30:21.348Z,52.87
2018-11-25T17:33:18.372Z,50.27
2018-11-25T17:36:03.719Z,50.17
2018-11-25T17:39:09.303Z,59.47
2018-11-25T17:41:54.415Z,62.93
2018-11-25T17:44:56.372Z,65.53
2018-11-25T17:47:43.119Z,58.60
2018-11-25T17:53:12.756Z,91.33
2018-11-25T17:55:59.413Z,67.10
2018-11-25T17:58:54.810Z,59.00
2018-11-25T18:01:46.572Z,61.03
2018-11-25T18:04:34.325Z,68.87
2018-11-25T18:10:03.688Z,71.83
2018-11-25T18:24:15.039Z,72.17
2018-11-25T18:30:02.925Z,61.97
2018-11-25T18:32:54.123Z,57.23
2018-11-25T18:42:05.758Z,69.37
2018-11-25T18:48:00.155Z,60.10
2018-11-25T18:50:53.921Z,59.97
2018-11-25T18:53:35.873Z,61.30
2018-11-25T18:56:28.923Z,48.80
2018-11-25T19:02:32.297Z,63.00
2018-11-25T19:05:16.104Z,56.10
2018-11-25T19:08:13.558Z,61.20
2018-11-25T19:13:56.368Z,61.77
2018-11-25T19:16:55.421Z,34.63
2018-11-25T19:19:53.468Z,66.35
2018-11-25T19:22:55.879Z,63.03
2018-11-25T19:25:48.279Z,46.77
2018-11-25T19:28:40.852Z,46.27
2018-11-25T19:32:34.877Z,47.40
2018-11-25T19:35:20.028Z,50.57
2018-11-25T19:37:59.424Z,50.90
2018-11-25T19:40:37.273Z,49.70
2018-11-25T19:43:19.883Z,58.67
2018-11-25T19:45:56.643Z,57.73
2018-11-25T19:48:44.128Z,66.28
2018-11-25T19:51:31.518Z,72.07
2018-11-25T19:57:01.951Z,65.50
2018-11-25T19:59:49.487Z,61.37
2018-11-25T20:02:34.678Z,65.77
2018-11-25T20:05:11.286Z,72.30
2018-11-25T20:07:47.846Z,83.33
2018-11-25T20:13:16.964Z,63.17
2018-11-25T20:16:07.126Z,69.47
2018-11-25T20:18:44.021Z,63.03
2018-11-25T20:21:25.170Z,68.97
2018-11-25T20:26:51.077Z,73.63
2018-11-25T20:29:28.571Z,72.53
2018-11-25T20:32:16.058Z,67.27
2018-11-25T20:35:13.117Z,84.43
2018-11-25T20:37:57.146Z,80.83
2018-11-25T20:40:37.698Z,81.27
2018-11-25T20:43:24.759Z,71.17
2018-11-25T20:46:03.023Z,83.97
2018-11-25T20:48:48.683Z,73.10
2018-11-25T20:51:31.193Z,83.77
2018-11-25T20:54:26.321Z,78.13
2018-11-25T20:57:08.335Z,77.90
2018-11-25T21:00:07.658Z,70.03
2018-11-25T21:02:50.991Z,76.73
2018-11-25T21:05:34.938Z,65.30
2018-11-25T21:11:14.778Z,83.00
2018-11-25T21:14:00.619Z,74.30
2018-11-25T21:16:41.916Z,120.87
2018-11-25T21:19:26.528Z,83.70
2018-11-25T21:22:14.705Z,86.23
2018-11-25T21:25:01.351Z,88.97
2018-11-25T21:27:41.717Z,81.37
2018-11-25T21:30:22.566Z,81.90
2018-11-25T21:33:09.529Z,76.20
2018-11-25T21:39:18.737Z,79.63
2018-11-25T21:42:58.186Z,77.13
2018-11-25T21:45:34.683Z,86.43
2018-11-25T21:48:10.484Z,91.80
2018-11-25T21:50:48.446Z,74.53
2018-11-25T21:53:33.927Z,98.57
2018-11-25T21:56:20.857Z,91.20
2018-11-25T21:58:57.373Z,82.67
2018-11-25T22:01:33.728Z,77.73
2018-11-25T22:04:07.074Z,92.07
2018-11-25T22:06:42.856Z,92.27
2018-11-25T22:09:15.839Z,94.30
2018-11-25T22:11:51.390Z,95.90
2018-11-25T22:14:29.374Z,92.43
2018-11-25T22:17:02.633Z,88.53
2018-11-25T22:19:39.466Z,98.77
2018-11-25T22:22:21.691Z,95.00
2018-11-25T22:25:03.427Z,107.13
2018-11-25T22:27:37.529Z,79.17
2018-11-25T22:30:31.287Z,80.07
2018-11-25T22:33:07.530Z,89.33
2018-11-25T22:35:39.893Z,87.67
2018-11-25T22:38:13.556Z,89.07
2018-11-25T22:40:48.430Z,94.37
2018-11-25T22:43:21.882Z,80.20
2018-11-25T22:45:53.070Z,86.30
2018-11-25T22:48:24.597Z,75.70
2018-11-25T22:51:03.813Z,86.30
2018-11-25T22:53:38.239Z,92.03
2018-11-25T22:56:15.565Z,80.83
2018-11-25T22:58:53.822Z,98.13
2018-11-25T23:01:29.709Z,81.70
2018-11-25T23:04:11.459Z,90.93
2018-11-25T23:07:00.989Z,81.03
2018-11-25T23:09:43.801Z,82.23
2018-11-25T23:12:16.808Z,88.47
2018-11-25T23:14:50.060Z,77.03
2018-11-25T23:17:25.097Z,69.70
2018-11-25T23:20:01.199Z,69.50
2018-11-25T23:22:36.885Z,65.47
2018-11-25T23:25:13.126Z,74.13
2018-11-25T23:27:44.368Z,73.63
2018-11-25T23:30:21.046Z,79.50
2018-11-25T23:32:54.164Z,65.63
2018-11-25T23:35:28.547Z,75.03
2018-11-25T23:38:00.892Z,65.57
2018-11-25T23:40:32.218Z,71.57
2018-11-25T23:43:03.765Z,66.60
2018-11-25T23:45:35.987Z,67.80
2018-11-25T23:48:10.006Z,60.33
2018-11-25T23:50:43.443Z,75.63
2018-11-25T23:53:17.206Z,71.33
2018-11-25T23:55:53.169Z,67.27
2018-11-25T23:58:25.124Z,79.80
